Time;durP1;ratioP1;P1;durP2;ratioP2;P2;SDS_P1;SDS_P2;PMS_P1;PMS_P2;Temp;Humidity;BMP_temperature;BMP_pressure;BME280_temperature;BME280_humidity;BME280_pressure;Samples;Min_cycle;Max_cycle;Signal;HPM_P1;HPM_P2
2021/03/19 00:02:41;;;;;;;10.40;9.43;;;;;;;1.17;74.98;100175.13;10427713;28;20061;-67
2021/03/19 00:07:46;;;;;;;16.25;13.48;;;;;;;1.06;75.71;100176.75;10409629;28;20169;-68
2021/03/19 00:12:50;;;;;;;13.43;12.38;;;;;;;1.15;75.58;100173.38;10392853;28;20049;-71
2021/03/19 00:17:54;;;;;;;16.08;14.68;;;;;;;1.22;75.47;100175.19;10427407;28;20120;-68
2021/03/19 00:23:04;;;;;;;17.58;16.08;;;;;;;1.00;76.12;100169.81;10426729;28;20037;-67
2021/03/19 00:28:06;;;;;;;16.02;14.82;;;;;;;0.99;76.02;100173.25;10426206;28;20060;-67
2021/03/19 00:33:08;;;;;;;16.55;15.25;;;;;;;0.86;76.31;100167.97;10426249;28;20116;-67
2021/03/19 00:38:10;;;;;;;16.70;15.45;;;;;;;0.75;76.61;100165.25;10426602;28;20049;-68
2021/03/19 00:43:13;;;;;;;15.98;14.48;;;;;;;0.81;76.84;100161.88;10426177;28;20442;-67
2021/03/19 00:48:14;;;;;;;15.75;14.65;;;;;;;0.82;76.43;100161.88;10426952;28;20042;-68
2021/03/19 00:53:24;;;;;;;14.07;12.93;;;;;;;1.05;75.89;100162.09;10425728;28;20091;-67
2021/03/19 00:58:25;;;;;;;13.90;12.90;;;;;;;1.05;75.26;100153.44;10425832;28;20543;-66
2021/03/19 01:03:27;;;;;;;14.10;13.10;;;;;;;1.20;75.72;100162.22;10425125;28;20067;-68
2021/03/19 01:08:28;;;;;;;15.00;13.75;;;;;;;1.06;75.32;100155.19;10407820;28;20053;-67
2021/03/19 01:13:30;;;;;;;14.30;13.27;;;;;;;1.26;75.19;100158.81;10425274;28;20161;-66
2021/03/19 01:18:31;;;;;;;13.40;12.40;;;;;;;1.07;75.48;100162.97;10425397;28;20041;-67
2021/03/19 01:23:47;;;;;;;15.57;14.48;;;;;;;0.92;76.38;100166.28;10406059;28;20045;-67
2021/03/19 01:28:48;;;;;;;15.73;14.50;;;;;;;1.23;76.11;100162.22;10406731;28;20421;-66
2021/03/19 01:33:58;;;;;;;16.15;14.95;;;;;;;1.17;76.05;100158.75;10423386;28;20041;-67
2021/03/19 01:38:59;;;;;;;14.55;13.45;;;;;;;1.34;75.36;100162.34;10424040;28;20048;-67
2021/03/19 01:44:08;;;;;;;14.27;13.27;;;;;;;1.20;75.31;100164.81;10423072;28;20045;-67
2021/03/19 01:49:46;;;;;;;14.38;13.35;;;;;;;1.17;74.95;100157.00;10423354;28;20049;-67
2021/03/19 01:55:25;;;;;;;13.95;12.77;;;;;;;1.24;74.89;100152.78;10424013;28;20053;-67
2021/03/19 02:01:06;;;;;;;14.63;13.52;;;;;;;1.07;75.78;100149.19;10406127;28;20076;-66
2021/03/19 02:06:45;;;;;;;15.15;14.05;;;;;;;1.24;75.37;100155.34;10422292;28;20046;-67
2021/03/19 02:12:24;;;;;;;14.18;13.07;;;;;;;1.13;75.29;100154.38;10421686;28;20049;-67
2021/03/19 02:18:03;;;;;;;15.20;14.05;;;;;;;1.12;75.79;100158.72;10404057;28;20046;-67
2021/03/19 02:23:41;;;;;;;14.85;13.65;;;;;;;1.11;75.43;100158.69;10430957;28;20128;-68
2021/03/19 02:29:20;;;;;;;16.83;15.43;;;;;;;0.85;76.23;100155.88;10430605;28;20045;-67
2021/03/19 02:34:34;;;;;;;17.35;15.95;;;;;;;0.98;76.08;100157.72;10430118;28;20419;-66
2021/03/19 02:39:35;;;;;;;16.80;15.50;;;;;;;1.11;75.65;100171.66;10429643;28;20065;-67
2021/03/19 02:44:37;;;;;;;16.83;15.48;;;;;;;0.98;75.80;100176.72;10429187;28;20052;-68
2021/03/19 02:49:39;;;;;;;18.98;17.38;;;;;;;0.74;76.45;100189.38;10429772;28;20057;-66
2021/03/19 02:54:52;;;;;;;19.20;17.55;;;;;;;0.67;77.25;100195.38;10428034;28;20071;-68
2021/03/19 02:59:53;;;;;;;16.40;15.00;;;;;;;0.66;77.26;100194.47;10428069;28;20120;-67
2021/03/19 03:04:54;;;;;;;15.93;14.43;;;;;;;0.82;76.41;100197.25;10428129;28;20158;-66
2021/03/19 03:09:56;;;;;;;16.42;15.07;;;;;;;0.59;76.57;100202.19;10410531;28;20450;-65
2021/03/19 03:14:58;;;;;;;17.42;15.90;;;;;;;0.54;76.61;100201.25;10426816;28;20045;-67
2021/03/19 03:19:59;;;;;;;18.65;17.10;;;;;;;0.39;77.05;100202.78;10427632;28;20061;-67
2021/03/19 03:25:15;;;;;;;19.33;17.60;;;;;;;0.53;76.99;100209.84;10427196;28;20041;-67
2021/03/19 03:30:37;;;;;;;18.40;16.90;;;;;;;0.63;75.88;100198.78;10426146;28;20465;-67
2021/03/19 03:35:39;;;;;;;18.13;16.60;;;;;;;0.73;75.87;100200.59;10426185;28;20049;-66
2021/03/19 03:40:57;;;;;;;18.52;17.02;;;;;;;0.75;75.88;100196.28;10408347;28;20077;-66
2021/03/19 03:45:58;;;;;;;16.80;15.40;;;;;;;0.76;75.61;100195.47;10424746;28;20046;-67
2021/03/19 03:51:02;;;;;;;19.05;17.45;;;;;;;0.50;76.49;100202.94;10407585;28;20048;-66
2021/03/19 03:56:04;;;;;;;18.58;17.10;;;;;;;0.62;76.20;100202.19;10426304;28;20583;-67
2021/03/19 04:01:06;;;;;;;19.02;17.40;;;;;;;0.75;75.98;100199.78;10425454;28;20052;-67
2021/03/19 04:06:08;;;;;;;18.35;16.85;;;;;;;0.58;76.42;100206.47;10425130;28;20053;-68
2021/03/19 04:11:13;;;;;;;19.52;17.77;;;;;;;0.49;76.32;100203.78;10426374;28;20446;-67
2021/03/19 04:16:16;;;;;;;18.33;16.80;;;;;;;0.69;75.74;100207.44;10425242;28;20059;-67
2021/03/19 04:21:17;;;;;;;18.60;17.00;;;;;;;0.59;76.42;100210.81;10424670;28;20053;-68
2021/03/19 04:26:30;;;;;;;20.05;18.35;;;;;;;0.56;76.19;100207.31;10425958;28;20057;-66
2021/03/19 04:31:31;;;;;;;18.85;17.15;;;;;;;0.46;76.74;100214.09;10423955;28;20049;-67
2021/03/19 04:36:39;;;;;;;19.17;17.58;;;;;;;0.54;77.14;100212.47;10423819;28;20050;-68
2021/03/19 04:41:46;;;;;;;19.15;17.55;;;;;;;0.62;76.61;100212.53;10424065;28;20045;-66
2021/03/19 04:46:48;;;;;;;21.98;19.98;;;;;;;0.71;76.20;100216.13;10406746;28;20107;-66
2021/03/19 04:51:49;;;;;;;23.33;21.33;;;;;;;0.59;76.28;100215.09;10402978;28;20076;-66
2021/03/19 04:56:51;;;;;;;24.35;21.80;;;;;;;0.50;76.74;100221.03;10421136;28;20400;-67
2021/03/19 05:01:55;;;;;;;24.40;22.15;;;;;;;0.47;76.56;100221.00;10420396;28;20045;-65
2021/03/19 05:07:01;;;;;;;28.40;24.02;;;;;;;0.20;77.37;100219.81;10421068;28;20128;-65
2021/03/19 05:12:04;;;;;;;27.10;22.90;;;;;;;0.38;77.18;100226.91;10386963;28;20070;-65
2021/03/19 05:17:05;;;;;;;26.48;23.58;;;;;;;0.36;77.11;100236.41;10420622;28;20092;-65
2021/03/19 05:22:07;;;;;;;22.75;20.60;;;;;;;0.30;77.26;100233.72;10420195;28;20045;-67
2021/03/19 05:27:09;;;;;;;19.05;17.60;;;;;;;0.50;76.46;100236.56;10418794;28;20158;-65
2021/03/19 05:32:11;;;;;;;20.70;18.83;;;;;;;0.27;76.95;100244.03;10401432;28;20407;-65
2021/03/19 05:37:12;;;;;;;19.55;17.95;;;;;;;0.35;77.17;100255.31;10418721;28;20044;-65
2021/03/19 05:42:35;;;;;;;18.58;17.05;;;;;;;0.55;76.42;100257.31;10421488;28;20046;-66
2021/03/19 05:47:37;;;;;;;20.90;19.10;;;;;;;0.65;76.15;100257.41;10423398;28;20388;-66
2021/03/19 05:52:39;;;;;;;19.95;18.30;;;;;;;0.48;76.42;100269.28;10418468;28;20099;-66
2021/03/19 05:57:41;;;;;;;21.17;19.48;;;;;;;0.26;77.43;100262.94;10422042;28;20045;-66
2021/03/19 06:02:42;;;;;;;21.33;19.42;;;;;;;0.38;77.12;100265.72;10400398;28;20561;-66
2021/03/19 06:08:09;;;;;;;20.23;18.38;;;;;;;0.53;76.57;100274.50;10418077;28;20072;-66
2021/03/19 06:13:14;;;;;;;19.17;17.50;;;;;;;0.55;76.73;100289.22;10394535;28;20052;-67
2021/03/19 06:18:18;;;;;;;18.83;17.15;;;;;;;0.55;76.87;100291.81;10418565;28;20048;-66
2021/03/19 06:23:22;;;;;;;20.65;18.65;;;;;;;0.46;77.03;100297.72;10417709;28;20042;-67
2021/03/19 06:28:36;;;;;;;18.67;17.17;;;;;;;0.63;77.13;100299.66;10399755;28;20533;-66
2021/03/19 06:33:38;;;;;;;19.02;17.42;;;;;;;0.90;76.22;100300.00;10418148;28;20037;-65
2021/03/19 06:39:04;;;;;;;20.98;19.00;;;;;;;0.78;76.18;100310.19;10417665;28;20049;-67
2021/03/19 06:44:16;;;;;;;19.25;17.52;;;;;;;0.88;76.03;100309.44;10392876;28;20041;-65
2021/03/19 06:49:19;;;;;;;22.58;19.30;;;;;;;0.72;76.08;100321.34;10418342;28;20049;-67
2021/03/19 06:54:26;;;;;;;21.70;19.45;;;;;;;0.83;76.44;100318.88;10421465;28;20041;-63
2021/03/19 06:59:38;;;;;;;23.85;21.70;;;;;;;0.72;76.34;100333.41;10403158;28;20045;-63
2021/03/19 07:05:15;;;;;;;27.35;23.35;;;;;;;0.78;76.42;100330.03;10397737;28;20049;-63
2021/03/19 07:10:34;;;;;;;32.47;23.65;;;;;;;0.66;76.96;100346.25;10378032;28;20568;-63
2021/03/19 07:15:53;;;;;;;32.45;24.55;;;;;;;0.86;76.20;100343.94;10426110;28;20049;-65
2021/03/19 07:21:07;;;;;;;28.27;23.42;;;;;;;0.88;75.70;100350.84;10426310;28;20414;-63
2021/03/19 07:26:15;;;;;;;27.63;23.80;;;;;;;1.12;74.66;100352.00;10417931;28;20060;-66
2021/03/19 07:31:39;;;;;;;38.47;25.00;;;;;;;0.89;75.60;100359.50;10419483;28;20056;-64
2021/03/19 07:36:55;;;;;;;39.08;25.30;;;;;;;1.10;75.43;100353.69;10387196;28;20042;-65
2021/03/19 07:42:08;;;;;;;34.80;24.75;;;;;;;1.36;73.77;100351.41;10383571;28;20511;-64
2021/03/19 07:48:00;;;;;;;33.15;23.50;;;;;;;1.55;73.38;100343.00;10386451;28;20104;-65
2021/03/19 07:53:07;;;;;;;35.38;24.92;;;;;;;2.09;73.05;100344.31;10256212;29;20074;-64
2021/03/19 07:58:42;;;;;;;39.20;26.70;;;;;;;2.12;72.60;100356.41;10257029;29;20063;-64
2021/03/19 08:03:48;;;;;;;42.42;27.48;;;;;;;2.23;72.42;100349.59;10243013;29;20059;-64
2021/03/19 08:09:01;;;;;;;40.20;27.33;;;;;;;2.11;71.93;100354.69;10258784;29;20071;-64
2021/03/19 08:14:23;;;;;;;35.25;25.65;;;;;;;2.06;71.44;100359.84;10259399;29;20082;-64
2021/03/19 08:19:35;;;;;;;42.47;26.13;;;;;;;2.22;70.75;100359.09;10256838;28;20051;-66
2021/03/19 08:24:39;;;;;;;33.00;23.98;;;;;;;2.57;69.95;100365.34;10418025;28;20050;-64
2021/03/19 08:29:51;;;;;;;39.03;26.85;;;;;;;2.13;70.61;100368.53;10422941;28;20045;-65
2021/03/19 08:35:18;;;;;;;44.42;26.23;;;;;;;2.19;70.89;100369.44;10423605;28;20124;-64
2021/03/19 08:40:55;;;;;;;35.45;24.92;;;;;;;2.30;70.39;100377.28;10422715;28;20061;-62
2021/03/19 08:46:03;;;;;;;39.75;26.15;;;;;;;2.39;70.59;100387.75;10424128;28;20037;-64
2021/03/19 08:51:14;;;;;;;34.67;25.95;;;;;;;1.92;71.66;100403.78;10422189;28;20105;-63
2021/03/19 08:56:30;;;;;;;33.65;24.48;;;;;;;2.27;70.89;100400.63;10400962;28;20064;-65
2021/03/19 09:01:49;;;;;;;27.27;20.33;;;;;;;2.33;69.47;100403.25;10408638;28;20134;-66
2021/03/19 09:07:34;;;;;;;24.75;18.25;;;;;;;2.48;68.62;100406.00;10411778;28;20055;-65
2021/03/19 09:12:54;;;;;;;25.17;17.38;;;;;;;2.15;67.68;100424.72;10215614;29;20058;-64
2021/03/19 09:17:59;;;;;;;21.95;16.15;;;;;;;2.05;67.58;100429.84;10214190;29;20063;-65
2021/03/19 09:23:10;;;;;;;22.60;18.20;;;;;;;2.21;67.77;100421.31;10213398;29;20067;-66
2021/03/19 09:28:23;;;;;;;19.58;17.45;;;;;;;2.29;68.35;100422.25;10205175;29;20051;-67
2021/03/19 09:33:42;;;;;;;24.85;19.65;;;;;;;2.73;68.38;100426.91;10212693;29;20431;-66
2021/03/19 09:38:44;;;;;;;22.33;17.80;;;;;;;3.62;65.99;100422.09;10197260;29;20051;-65
2021/03/19 09:43:50;;;;;;;14.65;13.13;;;;;;;3.95;60.31;100414.38;10211988;29;20051;-65
2021/03/19 09:49:08;;;;;;;18.33;14.73;;;;;;;3.33;63.23;100419.41;10367806;28;20061;-65
2021/03/19 09:54:33;;;;;;;17.98;15.30;;;;;;;2.83;64.29;100420.88;10379715;28;20049;-67
2021/03/19 09:59:38;;;;;;;16.83;15.07;;;;;;;2.64;64.84;100417.31;10361794;28;20054;-65
2021/03/19 10:04:39;;;;;;;18.55;16.30;;;;;;;2.43;66.15;100422.34;10376778;28;20056;-65
2021/03/19 10:09:50;;;;;;;14.80;13.25;;;;;;;1.92;68.10;100437.50;10360174;28;20052;-65
2021/03/19 10:14:54;;;;;;;24.30;15.27;;;;;;;1.45;70.89;100452.53;10378461;28;20080;-64
2021/03/19 10:20:14;;;;;;;21.50;17.63;;;;;;;1.22;72.31;100458.28;10378122;28;20052;-65
2021/03/19 10:25:23;;;;;;;18.52;16.63;;;;;;;1.45;72.85;100455.97;10378209;28;20381;-65
2021/03/19 10:30:44;;;;;;;15.82;14.18;;;;;;;2.23;70.90;100450.75;10377150;28;20042;-65
2021/03/19 10:36:15;;;;;;;14.75;13.32;;;;;;;2.07;70.93;100454.03;10377242;28;20046;-66
2021/03/19 10:41:28;;;;;;;13.35;12.05;;;;;;;1.73;71.35;100464.97;10373510;28;20085;-65
2021/03/19 10:46:39;;;;;;;14.80;13.45;;;;;;;1.74;71.82;100466.69;10385179;28;20052;-67
2021/03/19 10:51:49;;;;;;;14.32;12.93;;;;;;;1.88;71.86;100460.78;10385195;28;20049;-66
2021/03/19 10:56:50;;;;;;;12.80;11.70;;;;;;;2.11;71.45;100463.59;10369812;28;20487;-66
2021/03/19 11:01:52;;;;;;;13.98;12.70;;;;;;;2.57;70.26;100469.16;10368463;28;20053;-66
2021/03/19 11:06:54;;;;;;;13.65;12.55;;;;;;;2.14;70.53;100469.69;10366512;28;20046;-67
2021/03/19 11:11:58;;;;;;;11.55;10.57;;;;;;;2.10;70.23;100475.69;10384530;28;20049;-66
2021/03/19 11:17:18;;;;;;;9.52;8.75;;;;;;;2.53;67.87;100473.50;10384385;28;20038;-66
2021/03/19 11:22:20;;;;;;;7.95;7.25;;;;;;;3.07;64.87;100464.31;10379015;28;20045;-67
2021/03/19 11:27:24;;;;;;;6.90;6.30;;;;;;;3.33;61.90;100469.66;10386382;28;20400;-67
2021/03/19 11:32:28;;;;;;;5.45;4.93;;;;;;;3.31;60.41;100466.16;10386408;28;20099;-66
2021/03/19 11:37:35;;;;;;;5.55;5.03;;;;;;;3.45;62.44;100466.22;10384812;28;20081;-67
2021/03/19 11:42:49;;;;;;;4.50;4.10;;;;;;;3.33;62.00;100472.25;10368608;28;20068;-67
2021/03/19 11:47:57;;;;;;;3.92;3.55;;;;;;;3.29;59.86;100466.16;10385943;28;20356;-66
2021/03/19 11:53:23;;;;;;;5.00;3.78;;;;;;;3.13;59.60;100468.69;10385078;28;20455;-67
2021/03/19 11:58:28;;;;;;;4.70;4.30;;;;;;;3.20;60.13;100468.72;10398035;28;20097;-68
2021/03/19 12:03:46;;;;;;;3.95;3.58;;;;;;;3.46;60.31;100467.97;10416810;28;20045;-68
2021/03/19 12:08:47;;;;;;;3.75;3.30;;;;;;;3.24;60.12;100473.06;10400741;28;20455;-68
2021/03/19 12:13:49;;;;;;;2.75;2.55;;;;;;;3.30;58.00;100464.44;10419642;28;20045;-68
2021/03/19 12:18:50;;;;;;;2.40;2.20;;;;;;;3.22;57.29;100473.91;10425980;28;20107;-68
2021/03/19 12:23:52;;;;;;;2.40;2.20;;;;;;;3.29;56.79;100473.97;10424872;28;20042;-66
2021/03/19 12:28:53;;;;;;;3.88;2.85;;;;;;;3.31;56.47;100475.69;10369881;28;20451;-68
2021/03/19 12:33:54;;;;;;;3.63;3.05;;;;;;;3.33;56.05;100469.66;10384584;28;20145;-66
2021/03/19 12:38:56;;;;;;;2.75;2.53;;;;;;;3.26;55.82;100468.75;10409705;28;20049;-67
2021/03/19 12:43:57;;;;;;;4.50;3.70;;;;;;;3.41;56.73;100465.38;10401588;28;20077;-68
2021/03/19 12:48:58;;;;;;;2.97;2.67;;;;;;;3.54;55.98;100464.56;10383817;28;20108;-67
2021/03/19 12:54:00;;;;;;;3.08;2.30;;;;;;;3.66;55.95;100460.25;10382040;28;20058;-67
2021/03/19 12:59:09;;;;;;;4.15;2.75;;;;;;;4.37;55.16;100458.63;10381870;28;20088;-67
2021/03/19 13:04:17;;;;;;;3.40;3.00;;;;;;;3.60;57.18;100465.44;10333370;28;20038;-67
2021/03/19 13:09:19;;;;;;;2.38;2.05;;;;;;;3.33;56.76;100455.78;10380690;28;20045;-67
2021/03/19 13:14:20;;;;;;;3.53;2.95;;;;;;;3.44;55.61;100459.28;10397609;28;20128;-66
2021/03/19 13:19:22;;;;;;;4.22;2.28;;;;;;;3.36;57.97;100456.66;10385940;28;20496;-66
2021/03/19 13:24:23;;;;;;;3.63;3.17;;;;;;;3.49;58.28;100470.56;10380873;28;20042;-66
2021/03/19 13:29:24;;;;;;;2.70;2.50;;;;;;;2.96;60.39;100482.41;10379792;28;20040;-66
2021/03/19 13:34:26;;;;;;;3.90;3.50;;;;;;;2.87;62.13;100494.47;10380241;28;20487;-66
2021/03/19 13:39:30;;;;;;;3.60;3.30;;;;;;;2.36;65.15;100504.47;10379975;28;20144;-66
2021/03/19 13:44:31;;;;;;;1.27;1.17;;;;;;;1.54;70.05;100520.00;10380726;28;20038;-66
2021/03/19 13:49:34;;;;;;;1.17;1.08;;;;;;;0.88;72.12;100519.06;10362372;28;20050;-66
2021/03/19 13:54:35;;;;;;;1.92;1.50;;;;;;;0.43;73.97;100516.63;10381052;28;20048;-66
2021/03/19 13:59:36;;;;;;;1.20;1.10;;;;;;;0.62;72.93;100498.00;10380001;28;20563;-65
2021/03/19 14:04:38;;;;;;;0.82;0.80;;;;;;;0.78;72.50;100495.63;10364143;28;20124;-66
2021/03/19 14:09:40;;;;;;;1.45;1.10;;;;;;;1.12;72.10;100491.81;10405621;28;20042;-66
2021/03/19 14:14:41;;;;;;;1.42;0.95;;;;;;;1.86;70.85;100506.53;10426757;28;20398;-67
2021/03/19 14:19:43;;;;;;;2.28;1.30;;;;;;;1.83;70.63;100501.34;10418582;28;20076;-65
2021/03/19 14:24:45;;;;;;;5.40;2.72;;;;;;;1.62;71.24;100495.06;10436470;28;20049;-66
2021/03/19 14:29:47;;;;;;;3.92;3.53;;;;;;;1.72;71.77;100486.53;10437507;28;20047;-64
2021/03/19 14:34:48;;;;;;;6.53;3.67;;;;;;;1.80;71.06;100476.25;10387085;28;20041;-65
2021/03/19 14:39:50;;;;;;;4.95;3.58;;;;;;;1.62;71.39;100483.81;10436432;28;20060;-67
2021/03/19 14:44:51;;;;;;;5.72;4.78;;;;;;;1.64;71.08;100475.22;10435174;28;20487;-66
2021/03/19 14:49:53;;;;;;;5.68;5.10;;;;;;;1.72;70.84;100488.25;10416486;28;20076;-66
2021/03/19 14:54:55;;;;;;;7.75;4.65;;;;;;;2.43;69.84;100477.72;10434765;28;20042;-67
2021/03/19 14:59:59;;;;;;;4.80;4.40;;;;;;;2.76;68.62;100465.88;10418867;28;20407;-67
2021/03/19 15:05:00;;;;;;;5.18;4.68;;;;;;;2.67;69.74;100502.13;10418408;28;20041;-66
2021/03/19 15:10:03;;;;;;;2.17;1.33;;;;;;;2.03;66.28;100536.97;10433138;28;20061;-67
2021/03/19 15:15:05;;;;;;;2.45;1.20;;;;;;;1.43;66.97;100557.84;10407577;28;20441;-67
2021/03/19 15:20:10;;;;;;;1.88;1.05;;;;;;;1.21;67.79;100560.16;10402452;28;20395;-66
2021/03/19 15:25:12;;;;;;;1.05;1.00;;;;;;;0.94;69.19;100581.31;10434202;28;20044;-67
2021/03/19 15:30:18;;;;;;;2.30;1.88;;;;;;;0.32;71.21;100575.06;10429733;28;20053;-67
2021/03/19 15:35:21;;;;;;;4.72;2.00;;;;;;;0.46;72.12;100555.50;10393042;28;20163;-67
2021/03/19 15:40:27;;;;;;;2.00;1.75;;;;;;;0.46;71.47;100546.00;10423165;28;20126;-66
2021/03/19 15:45:29;;;;;;;2.17;1.98;;;;;;;0.58;71.30;100554.84;10422307;28;20042;-66
2021/03/19 15:50:37;;;;;;;2.17;1.70;;;;;;;0.74;71.37;100559.41;10423154;28;20065;-66
2021/03/19 15:55:39;;;;;;;3.22;1.90;;;;;;;1.13;70.17;100556.56;10426408;28;20115;-67
2021/03/19 16:00:41;;;;;;;1.98;1.70;;;;;;;0.75;70.84;100559.44;10425819;28;20052;-65
2021/03/19 16:05:43;;;;;;;2.40;2.20;;;;;;;0.78;71.13;100573.28;10407574;28;20041;-68
2021/03/19 16:10:46;;;;;;;2.10;1.90;;;;;;;1.18;69.54;100577.34;10425452;28;20045;-66
2021/03/19 16:15:47;;;;;;;3.08;2.17;;;;;;;1.07;69.28;100581.50;10426157;28;20037;-66
2021/03/19 16:20:49;;;;;;;2.03;1.75;;;;;;;1.08;68.70;100575.47;10427462;28;20164;-67
2021/03/19 16:25:51;;;;;;;3.22;1.98;;;;;;;1.18;68.18;100587.72;10409638;28;20068;-66
2021/03/19 16:30:54;;;;;;;3.75;3.00;;;;;;;0.87;70.22;100589.81;10409710;28;20050;-67
2021/03/19 16:35:58;;;;;;;6.85;5.60;;;;;;;0.65;71.10;100601.50;10431684;28;20101;-66
2021/03/19 16:41:03;;;;;;;5.20;4.70;;;;;;;0.60;71.10;100612.63;10427729;28;20414;-66
2021/03/19 16:46:08;;;;;;;5.38;4.88;;;;;;;0.70;70.75;100618.00;10427592;28;20037;-66
2021/03/19 16:51:14;;;;;;;3.05;2.75;;;;;;;0.70;70.30;100625.75;10426815;28;20053;-65
2021/03/19 16:56:15;;;;;;;3.65;2.83;;;;;;;0.74;71.49;100637.91;10426604;28;20129;-66
2021/03/19 17:01:19;;;;;;;5.88;2.80;;;;;;;0.67;71.53;100643.81;10426797;28;20470;-66
2021/03/19 17:06:21;;;;;;;3.53;2.95;;;;;;;0.69;71.41;100649.88;10424537;28;20048;-66
2021/03/19 17:11:23;;;;;;;3.38;2.55;;;;;;;0.60;71.53;100652.31;10422612;28;20068;-67
2021/03/19 17:16:25;;;;;;;4.78;4.38;;;;;;;0.44;72.66;100656.34;10407415;28;20045;-66
2021/03/19 17:21:26;;;;;;;3.33;3.05;;;;;;;0.18;73.69;100654.97;10426792;28;20068;-64
2021/03/19 17:26:28;;;;;;;4.22;2.40;;;;;;;0.40;71.04;100663.97;10426617;28;20107;-66
2021/03/19 17:31:33;;;;;;;3.42;2.88;;;;;;;0.34;70.29;100667.31;10431459;28;20041;-68
2021/03/19 17:36:37;;;;;;;;;;;;;;;0.55;70.08;100676.34;10414375;28;20037;-65
2021/03/19 17:41:38;;;;;;;2.65;1.70;;;;;;;0.43;66.88;100680.44;10411056;28;19921;-66
2021/03/19 17:46:40;;;;;;;3.28;2.20;;;;;;;0.33;67.74;100688.88;10427668;28;20049;-66
2021/03/19 17:51:41;;;;;;;2.10;1.90;;;;;;;0.44;67.17;100692.56;10425859;28;20041;-67
2021/03/19 17:56:42;;;;;;;2.42;1.55;;;;;;;0.25;65.82;100685.25;10425538;28;20076;-67
2021/03/19 18:01:44;;;;;;;2.10;1.48;;;;;;;0.23;65.12;100705.03;10421337;28;20041;-68
2021/03/19 18:06:48;;;;;;;2.25;1.40;;;;;;;0.14;64.15;100703.13;10422619;28;20041;-67
2021/03/19 18:11:49;;;;;;;2.08;1.10;;;;;;;0.11;64.44;100710.81;10423389;28;20431;-68
2021/03/19 18:16:50;;;;;;;3.25;1.48;;;;;;;0.07;64.51;100718.47;10422266;28;20411;-67
2021/03/19 18:21:54;;;;;;;2.50;1.40;;;;;;;0.02;64.92;100722.69;10423832;28;20041;-67
2021/03/19 18:26:58;;;;;;;2.88;1.20;;;;;;;-0.04;65.88;100742.38;10390407;28;20495;-68
2021/03/19 18:32:00;;;;;;;3.42;1.27;;;;;;;-0.04;65.86;100741.50;10424387;28;20049;-67
2021/03/19 18:37:11;;;;;;;2.45;1.40;;;;;;;-0.14;66.43;100757.63;10422659;28;20049;-67
2021/03/19 18:42:14;;;;;;;2.60;1.70;;;;;;;-0.11;66.97;100756.00;10421790;28;20049;-68
2021/03/19 18:47:16;;;;;;;3.10;2.00;;;;;;;-0.09;66.48;100766.34;10421575;28;20041;-67
2021/03/19 18:52:21;;;;;;;3.03;1.80;;;;;;;-0.19;66.60;100764.41;10403264;28;20137;-67
2021/03/19 18:57:24;;;;;;;2.85;1.92;;;;;;;-0.16;66.64;100767.94;10423482;28;20116;-67
2021/03/19 19:02:25;;;;;;;1.95;1.55;;;;;;;-0.11;66.65;100773.22;10427817;28;20510;-67
2021/03/19 19:07:35;;;;;;;3.25;1.70;;;;;;;-0.05;65.62;100774.22;10414791;28;20091;-68
2021/03/19 19:12:38;;;;;;;5.68;1.90;;;;;;;-0.20;65.87;100776.47;10429207;28;20048;-68
2021/03/19 19:17:40;;;;;;;3.70;2.30;;;;;;;-0.13;66.87;100780.94;10429408;28;20042;-67
2021/03/19 19:22:43;;;;;;;3.13;2.28;;;;;;;-0.04;66.96;100785.44;10427658;28;20038;-67
2021/03/19 19:27:44;;;;;;;5.65;2.50;;;;;;;-0.24;67.65;100789.25;10392487;28;20051;-67
2021/03/19 19:32:45;;;;;;;3.33;2.08;;;;;;;-0.36;67.94;100792.41;10437601;28;20113;-67
2021/03/19 19:37:56;;;;;;;5.18;2.22;;;;;;;-0.38;69.03;100802.72;10414115;28;20037;-67
2021/03/19 19:42:58;;;;;;;2.83;2.00;;;;;;;-0.31;68.55;100809.78;10428559;28;20496;-67
2021/03/19 19:47:59;;;;;;;6.32;2.50;;;;;;;-0.45;68.52;100805.97;10413292;28;20132;-67
2021/03/19 19:53:02;;;;;;;3.90;1.80;;;;;;;-0.46;67.88;100837.81;10395931;28;20156;-67
2021/03/19 19:58:11;;;;;;;2.65;1.20;;;;;;;-0.63;65.02;100841.66;10430927;28;20410;-68
2021/03/19 20:03:31;;;;;;;1.85;1.10;;;;;;;-0.71;63.93;100850.91;10415237;28;20466;-69
2021/03/19 20:08:32;;;;;;;1.83;0.95;;;;;;;-0.78;63.69;100852.47;10413165;28;20045;-67
2021/03/19 20:13:34;;;;;;;2.45;1.20;;;;;;;-0.83;64.53;100847.19;10429549;28;20503;-67
2021/03/19 20:18:39;;;;;;;1.63;0.80;;;;;;;-0.75;63.17;100844.81;10429946;28;20041;-68
2021/03/19 20:23:41;;;;;;;2.08;1.10;;;;;;;-0.95;64.17;100856.28;10420495;28;20526;-68
2021/03/19 20:28:50;;;;;;;1.75;1.10;;;;;;;-0.77;63.60;100859.38;10399226;28;20049;-68
2021/03/19 20:33:52;;;;;;;3.13;1.27;;;;;;;-0.87;64.39;100859.97;10401223;28;20436;-67
2021/03/19 20:38:53;;;;;;;2.15;1.10;;;;;;;-0.92;64.72;100872.72;10374736;28;20058;-68
2021/03/19 20:43:55;;;;;;;2.47;1.20;;;;;;;-1.07;65.48;100873.16;10370337;28;20053;-68
2021/03/19 20:48:56;;;;;;;3.33;1.63;;;;;;;-1.03;65.73;100877.56;10370944;28;20049;-69
2021/03/19 20:53:58;;;;;;;2.95;1.58;;;;;;;-0.84;65.32;100884.16;10371915;28;20086;-67
2021/03/19 20:59:01;;;;;;;2.95;1.75;;;;;;;-0.90;65.62;100889.13;10394446;28;20049;-66
2021/03/19 21:04:08;;;;;;;3.55;1.60;;;;;;;-1.04;65.80;100893.03;10393313;28;20388;-66
2021/03/19 21:09:16;;;;;;;2.08;1.40;;;;;;;-1.01;65.61;100893.13;10376422;28;20064;-66
2021/03/19 21:14:19;;;;;;;2.67;1.50;;;;;;;-0.93;64.84;100901.06;10392580;28;20101;-66
2021/03/19 21:19:22;;;;;;;4.85;1.67;;;;;;;-1.06;64.62;100908.47;10391911;28;20050;-66
2021/03/19 21:24:24;;;;;;;2.88;1.25;;;;;;;-0.94;62.40;100915.69;10379354;28;20072;-66
2021/03/19 21:29:31;;;;;;;3.22;1.48;;;;;;;-1.12;62.87;100921.16;10361266;28;20534;-67
2021/03/19 21:34:33;;;;;;;1.77;1.33;;;;;;;-1.04;62.08;100917.13;10393331;28;20042;-68
2021/03/19 21:39:34;;;;;;;4.70;1.20;;;;;;;-1.18;61.70;100926.16;10378246;28;20092;-67
2021/03/19 21:44:36;;;;;;;4.00;1.58;;;;;;;-1.12;60.69;100923.75;10381000;28;20046;-66
2021/03/19 21:49:39;;;;;;;6.15;3.35;;;;;;;-1.13;60.58;100936.63;10395596;28;20042;-68
2021/03/19 21:54:46;;;;;;;5.18;2.92;;;;;;;-1.08;60.60;100948.81;10378150;28;20049;-67
2021/03/19 21:59:47;;;;;;;2.17;1.13;;;;;;;-1.17;59.85;100948.53;10376516;28;20428;-69
2021/03/19 22:04:49;;;;;;;3.08;1.35;;;;;;;-1.15;59.54;100956.31;10378085;28;20038;-67
2021/03/19 22:09:51;;;;;;;3.13;1.20;;;;;;;-1.28;59.48;100953.41;10383894;28;20443;-67
2021/03/19 22:14:52;;;;;;;3.15;1.10;;;;;;;-1.20;58.63;100958.75;10403152;28;20046;-66
2021/03/19 22:19:54;;;;;;;2.13;1.10;;;;;;;-1.27;57.76;100957.72;10385650;28;20150;-67
2021/03/19 22:24:59;;;;;;;2.67;1.05;;;;;;;-1.31;58.39;100970.47;10402569;28;20038;-67
2021/03/19 22:30:01;;;;;;;4.63;1.17;;;;;;;-1.54;59.65;100974.91;10405957;28;20054;-66
2021/03/19 22:35:06;;;;;;;5.55;1.20;;;;;;;-1.42;57.41;100977.84;10405217;28;20042;-67
2021/03/19 22:40:19;;;;;;;3.58;1.10;;;;;;;-1.54;57.96;100978.34;10395071;28;20045;-67
2021/03/19 22:45:20;;;;;;;;;;;;;;;-1.33;57.77;100980.75;10395233;28;20049;-68
2021/03/19 22:50:27;;;;;;;2.38;1.10;;;;;;;-1.49;56.88;100983.66;10413240;28;19932;-67
2021/03/19 22:55:29;;;;;;;2.28;0.90;;;;;;;-1.51;57.87;100987.88;10394295;28;20041;-67
2021/03/19 23:00:46;;;;;;;2.25;1.20;;;;;;;-1.58;57.75;100996.25;10409622;28;20050;-66
2021/03/19 23:05:49;;;;;;;3.28;1.40;;;;;;;-1.68;58.33;101002.81;10412190;28;20046;-67
2021/03/19 23:11:03;;;;;;;2.50;1.00;;;;;;;-1.74;57.84;100999.16;10410337;28;20057;-67
2021/03/19 23:16:09;;;;;;;3.15;1.10;;;;;;;-1.76;59.19;101003.41;10393117;28;20038;-67
2021/03/19 23:21:16;;;;;;;4.40;1.10;;;;;;;-1.70;58.70;101001.00;10374772;28;20085;-68
2021/03/19 23:26:23;;;;;;;5.10;1.20;;;;;;;-1.76;58.31;101003.41;10378092;28;20060;-67
2021/03/19 23:31:25;;;;;;;2.80;1.38;;;;;;;-1.81;58.04;101004.09;10410397;28;20073;-67